Ticino, Argentina
Current Conditions -  °F | °C
As of 9:00 PM on Friday 21 Nov 2014 (Local Time) from SAOC Reporting Station
Few Clouds Few Clouds  
Wind Chill: 57°   Ceiling: Unl
Heat Index: 57°   Visibility: 6mi
Dew Point: 52°   Wind: 5mph
Humidity: 82%   Direction: 180°S
Pressure: 29.94"   Gusts: NA
Location:  32.7°S, 63.44°W
Report Text: SAOC 220000Z 18004KT 9999 FEW020 FEW045CB14/11 Q1014
Loading
Personal Weather Stations






























Interactive Weather Map New forecast layout! Learn more

10-Day Weather Forecast

Advertisements
Track Severe Weather on mobile